Flight Track Log - Related Links

Times and Time Zones

All times are in EDT time to prevent confusion due to time zone crossing. See the SWA907 flight status page for this flight to view local times or setup timezone preferences in your user account.

Time Position Orientation Groundspeed Altitude Reporting Facility
EDT Latitude Longitude Course Direction KTS MPH feet Rate Location/Type
Sun 11:53:25 AM 27.9667 -82.5500 180° South 167 192 900  Level Tampa TRACON
Sun 11:53:49 AM 27.9500 -82.5500 180° South 168 193 1,700 2,319 Climbing Tampa TRACON
Sun 11:56:08 AM 27.8700 -82.6625 231° Southwest 194 223 7,200 2,533 Climbing Jacksonville Center
Sun 11:57:08 AM 27.9267 -82.7211 318° Northwest 205 236 10,100 2,450 Climbing Jacksonville Center
Sun 11:58:08 AM 28.0164 -82.7328 353° North 249 287 12,100 2,600 Climbing Jacksonville Center
Sun 11:59:08 AM 28.1186 -82.7467 353° North 310 357 15,300 2,850 Climbing Jacksonville Center
Sun 12:00:08 PM 28.2208 -82.7606 353° North 342 394 17,800 2,550 Climbing Jacksonville Center
Sun 12:01:08 PM 28.3336 -82.7747 354° North 377 434 20,400 2,550 Climbing Jacksonville Center
Sun 12:02:08 PM 28.4442 -82.7911 353° North 388 447 22,900 2,200 Climbing Jacksonville Center
Sun 12:03:08 PM 28.5589 -82.8122 351° North 408 470 24,800 1,850 Climbing Jacksonville Center
Sun 12:04:08 PM 28.6819 -82.8381 350° North 422 486 26,600 1,650 Climbing Jacksonville Center
Sun 12:05:08 PM 28.7864 -82.8667 347° North 427 491 28,100 1,650 Climbing Jacksonville Center
Sun 12:06:08 PM 28.9075 -82.9139 341° North 439 505 29,900 1,950 Climbing Jacksonville Center
Sun 12:07:08 PM 29.0306 -82.9519 345° North 445 512 32,000 1,950 Climbing Jacksonville Center
Sun 12:08:08 PM 29.1536 -82.9900 345° North 450 518 33,800 1,900 Climbing Jacksonville Center
Sun 12:09:08 PM 29.2747 -83.0258 346° North 455 524 35,800 1,750 Climbing Jacksonville Center
Sun 12:10:08 PM 29.3936 -83.0619 345° North 450 518 37,300 1,100 Climbing Jacksonville Center
Sun 12:11:08 PM 29.5272 -83.1075 343° North 440 506 38,000 350 Climbing Jacksonville Center
Sun 12:12:08 PM 29.6461 -83.1411 346° North 440 506 38,000  Level Jacksonville Center
Sun 12:13:08 PM 29.7631 -83.1797 344° North 440 506 38,000  Level Jacksonville Center
Sun 12:14:08 PM 29.8842 -83.2158 346° North 438 504 38,000  Level Jacksonville Center
Sun 12:15:08 PM 30.0008 -83.2547 344° North 432 497 38,000  Level Jacksonville Center
Sun 12:16:08 PM 30.1114 -83.2864 346° North 438 504 38,000  Level Jacksonville Center
Sun 12:17:08 PM 30.2325 -83.3228 345° North 438 504 38,000  Level Jacksonville Center
Sun 12:18:08 PM 30.3597 -83.3644 344° North 433 498 38,000  Level Jacksonville Center
Sun 12:19:08 PM 30.4783 -83.4011 345° North 438 504 38,000  Level Jacksonville Center
Sun 12:20:08 PM 30.5972 -83.4406 344° North 438 504 38,000  Level Jacksonville Center
Sun 12:21:08 PM 30.7183 -83.4775 345° North 438 504 38,000  Level Jacksonville Center
Sun 12:22:08 PM 30.8350 -83.5167 344° North 438 504 38,000  Level Jacksonville Center
Sun 12:23:08 PM 30.9558 -83.5564 344° North 438 504 38,000  Level Jacksonville Center
Sun 12:24:08 PM 31.0789 -83.5961 345° North 438 504 38,000  Level Jacksonville Center
Sun 12:25:44 PM 31.2764 -83.6600 345° North 449 517 38,000  Level Atlanta Center
Sun 12:26:44 PM 31.3997 -83.7006 344° North 454 522 38,000  Level Atlanta Center
Sun 12:27:44 PM 31.5208 -83.7417 344° North 454 522 38,000  Level Atlanta Center
Sun 12:28:44 PM 31.6358 -83.7778 345° North 459 528 38,000  Level Atlanta Center
Sun 12:29:44 PM 31.7589 -83.8142 346° North 459 528 38,000  Level Atlanta Center
Sun 12:30:44 PM 31.8864 -83.8578 344° North 459 528 38,000  Level Atlanta Center
Sun 12:31:44 PM 32.0075 -83.8967 345° North 454 522 38,000  Level Atlanta Center
Sun 12:32:44 PM 32.1286 -83.9383 344° North 454 522 38,000  Level Atlanta Center
Sun 12:33:44 PM 32.2517 -83.9775 345° North 454 522 38,000  Level Atlanta Center
Sun 12:34:44 PM 32.3728 -84.0167 345° North 454 522 38,000  Level Atlanta Center
Sun 12:35:44 PM 32.4958 -84.0586 344° North 454 522 38,000  Level Atlanta Center
Sun 12:36:44 PM 32.6192 -84.0981 345° North 454 522 38,000  Level Atlanta Center
Sun 12:37:44 PM 32.7400 -84.1425 343° North 454 522 38,000  Level Atlanta Center
Sun 12:38:44 PM 32.8633 -84.1822 345° North 454 522 38,000  Level Atlanta Center
Sun 12:39:44 PM 32.9822 -84.2219 344° North 447 514 38,000  Level Atlanta Center
Sun 12:40:44 PM 33.1011 -84.2644 343° North 442 509 38,000  Level Atlanta Center
Sun 12:41:44 PM 33.2178 -84.3019 345° North 437 503 38,000  Level Atlanta Center
Sun 12:42:44 PM 33.3367 -84.3397 345° North 437 503 38,000  Level Atlanta Center
Sun 12:43:44 PM 33.4536 -84.3800 344° North 437 503 38,000  Level Atlanta Center
Sun 12:44:44 PM 33.5703 -84.4178 345° North 437 503 38,000  Level Atlanta Center
Sun 12:45:44 PM 33.6872 -84.4533 346° North 437 503 38,000  Level Atlanta Center
Sun 12:46:44 PM 33.8081 -84.4814 349° North 428 493 38,000  Level Atlanta Center
Sun 12:47:44 PM 33.9228 -84.5119 348° North 428 493 38,000  Level Atlanta Center
Sun 12:48:44 PM 34.0583 -84.5428 349° North 436 502 38,000  Level Atlanta Center
Sun 12:49:44 PM 34.1708 -84.5686 349° North 445 512 38,000  Level Atlanta Center
Sun 12:50:44 PM 34.2878 -84.5944 350° North 445 512 38,000  Level Atlanta Center
Sun 12:51:44 PM 34.4064 -84.6228 349° North 439 505 38,000  Level Atlanta Center
Sun 12:52:44 PM 34.5253 -84.6539 348° North 434 499 38,000  Level Atlanta Center
Sun 12:53:44 PM 34.6544 -84.6853 349° North 428 493 38,000  Level Atlanta Center
Sun 12:54:44 PM 34.7692 -84.7164 347° North 421 484 38,000  Level Atlanta Center
Sun 12:55:44 PM 34.8881 -84.7453 349° North 421 484 38,000  Level Atlanta Center
Sun 12:56:44 PM 35.0067 -84.7742 349° North 427 491 38,000  Level Atlanta Center
Sun 12:57:44 PM 35.1233 -84.8031 349° North 427 491 38,000  Level Atlanta Center
Sun 12:58:44 PM 35.2400 -84.8347 348° North 427 491 38,000  Level Atlanta Center
Sun 12:59:44 PM 35.3589 -84.8639 349° North 432 497 38,000  Level Atlanta Center
Sun 01:00:44 PM 35.4775 -84.8931 349° North 432 497 38,000  Level Atlanta Center
Sun 01:01:44 PM 35.5983 -84.9250 348° North 432 497 38,000  Level Atlanta Center
Sun 01:02:44 PM 35.7128 -84.9569 347° North 427 491 38,000  Level Atlanta Center
Sun 01:04:43 PM 35.9500 -85.0117 349° North 444 511 38,000  Level Indianapolis Center
Sun 01:05:45 PM 36.0647 -85.0419 348° North 438 504 38,000  Level Indianapolis Center
Sun 01:06:47 PM 36.1847 -85.0711 349° North 438 504 38,000  Level Indianapolis Center
Sun 01:07:48 PM 36.3294 -85.1097 348° North 442 509 38,000  Level Indianapolis Center
Sun 01:08:50 PM 36.4489 -85.1400 348° North 439 505 38,000  Level Indianapolis Center
Sun 01:09:52 PM 36.5697 -85.1700 349° North 441 507 38,000  Level Indianapolis Center
Sun 01:10:53 PM 36.6892 -85.2017 348° North 440 506 38,000  Level Indianapolis Center
Sun 01:11:55 PM 36.8033 -85.2500 341° North 434 499 38,000  Level Indianapolis Center
Sun 01:12:56 PM 36.9161 -85.2997 341° North 430 495 38,000  Level Indianapolis Center
Sun 01:13:58 PM 37.0392 -85.3533 341° North 430 495 38,000  Level Indianapolis Center
Sun 01:15:00 PM 37.1511 -85.4022 341° North 426 490 38,000  Level Indianapolis Center
Sun 01:16:01 PM 37.2631 -85.4531 340° North 427 491 38,000  Level Indianapolis Center
Sun 01:17:03 PM 37.3758 -85.5036 340° North 428 493 38,000  Level Indianapolis Center
Sun 01:18:05 PM 37.4889 -85.5528 341° North 432 497 38,000  Level Indianapolis Center
Sun 01:19:06 PM 37.6011 -85.6036 340° North 428 493 38,000  Level Indianapolis Center
Sun 01:20:08 PM 37.7378 -85.6656 340° North 433 498 38,000  Level Indianapolis Center
Sun 01:21:10 PM 37.8519 -85.7153 341° North 433 498 38,000  Level Indianapolis Center
Sun 01:22:11 PM 37.9653 -85.7689 340° North 434 499 38,000  Level Indianapolis Center
Sun 01:23:13 PM 38.0786 -85.8208 340° North 433 498 38,000  Level Indianapolis Center
Sun 01:24:15 PM 38.1928 -85.8717 341° North 434 499 38,000  Level Indianapolis Center
Sun 01:25:16 PM 38.3072 -85.9250 340° North 436 502 38,000  Level Indianapolis Center
Sun 01:26:18 PM 38.4200 -85.9758 341° North 432 497 38,000  Level Indianapolis Center
Sun 01:27:19 PM 38.5333 -86.0289 340° North 433 498 38,000  Level Indianapolis Center
Sun 01:28:21 PM 38.6686 -86.0914 340° North 432 497 38,000  Level Indianapolis Center
Sun 01:29:22 PM 38.7822 -86.1444 340° North 434 499 38,000  Level Indianapolis Center
Sun 01:30:24 PM 38.8978 -86.1975 340° North 436 502 38,000  Level Indianapolis Center
Sun 01:31:26 PM 39.0128 -86.2517 340° North 440 506 38,000  Level Indianapolis Center
Sun 01:32:27 PM 39.1269 -86.3047 340° North 438 504 38,000  Level Indianapolis Center
Sun 01:33:29 PM 39.2422 -86.3592 340° North 439 505 38,000  Level Indianapolis Center
Sun 01:34:30 PM 39.3578 -86.4139 340° North 440 506 38,000  Level Indianapolis Center
Sun 01:35:32 PM 39.4728 -86.4692 340° North 439 505 38,000  Level Indianapolis Center
Sun 01:36:33 PM 39.5878 -86.5250 339° North 437 503 38,000  Level Indianapolis Center
Sun 01:37:35 PM 39.7031 -86.5789 340° North 434 499 38,000  Level Indianapolis Center
Sun 01:38:37 PM 39.8164 -86.6336 340° North 428 493 38,000  Level Indianapolis Center
Sun 01:39:38 PM 39.9489 -86.6967 340° North 421 484 38,000  Level Indianapolis Center
Sun 01:40:40 PM 40.0558 -86.7539 338° Northwest 416 479 38,000 -484 Level Indianapolis Center
Sun 01:41:42 PM 40.1583 -86.8183 334° Northwest 410 472 37,000 -1,037 Descending Indianapolis Center
Sun 01:42:01 PM 40.1789 -86.8328 332° Northwest 411 473 36,600 -1,704 Descending Chicago Center
Sun 01:43:03 PM 40.3092 -86.9142 335° Northwest 429 494 34,700 -1,694 Descending Chicago Center
Sun 01:44:05 PM 40.4192 -86.9833 334° Northwest 436 502 33,100 -816 Descending Chicago Center
Sun 01:45:08 PM 40.5281 -87.0511 335° Northwest 433 498 33,000 -48 Descending Chicago Center
Sun 01:46:09 PM 40.6508 -87.0842 348° North 448 516 33,000  Level Chicago Center
Sun 01:47:11 PM 40.7897 -87.1053 353° North 452 520 33,000  Level Chicago Center
Sun 01:48:13 PM 40.9150 -87.1267 353° North 457 526 33,000  Level Chicago Center
Sun 01:49:15 PM 41.0381 -87.1478 353° North 452 520 33,000  Level Chicago Center
Sun 01:50:17 PM 41.1617 -87.1639 354° North 452 520 33,000 -823 Level Chicago Center
Sun 01:51:19 PM 41.3083 -87.1792 356° North 446 513 31,300 -1,968 Descending Chicago Center
Sun 01:52:22 PM 41.4286 -87.1933 355° North 440 506 28,900 -2,160 Descending Chicago Center
Sun 01:53:24 PM 41.5439 -87.2094 354° North 425 489 26,800 -1,984 Descending Chicago Center
Sun 01:54:26 PM 41.6533 -87.2222 355° North 405 466 24,800 -1,452 Descending Chicago Center
Sun 01:55:28 PM 41.7789 -87.2381 355° North 384 442 23,800 -871 Descending Chicago Center
Sun 01:56:30 PM 41.8783 -87.2506 355° North 368 423 23,000 -581 Descending Chicago Center
Sun 01:57:32 PM 41.9783 -87.2625 355° North 363 418 22,600 -484 Descending Chicago Center
Sun 01:58:34 PM 42.0753 -87.2725 356° North 354 407 22,000 -871 Descending Chicago Center
Sun 01:59:36 PM 42.1728 -87.2828 356° North 354 407 20,800 -1,597 Descending Chicago Center
Sun 02:00:38 PM 42.2850 -87.2975 354° North 341 392 18,700 -1,887 Descending Chicago Center
Sun 02:01:40 PM 42.3761 -87.3089 355° North 332 382 16,900 -1,742 Descending Chicago Center
Sun 02:02:42 PM 42.4617 -87.3208 354° North 326 375 15,100 -1,984 Descending Chicago Center
Sun 02:03:44 PM 42.5492 -87.3306 355° North 318 366 12,800 -1,935 Descending Chicago Center
Sun 02:04:46 PM 42.6383 -87.3414 355° North 321 369 11,100 -1,452 Descending Chicago Center
Sun 02:05:48 PM 42.7078 -87.3886 333° Northwest 279 321 9,800 -1,355 Descending Chicago Center
Sun 02:06:50 PM 42.7017 -87.4903 265° West 269 310 8,300 -1,597 Descending Chicago Center
Sun 02:07:52 PM 42.6950 -87.6031 265° West 260 299 6,500 -1,548 Descending Chicago Center
Sun 02:08:54 PM 42.7028 -87.6986 276° West 255 293 5,100 -726 Descending Chicago Center
Sun 02:09:56 PM 42.7103 -87.7881 277° West 244 281 5,000 -435 Descending Chicago Center
Sun 02:10:58 PM 42.7331 -87.8611 293° West 212 244 4,200 -968 Descending Chicago Center
Sun 02:12:00 PM 42.7758 -87.9069 322° Northwest 216 249 3,000 -774 Descending Chicago Center
Sun 02:13:02 PM 42.8267 -87.9161 352° North 200 230 2,600 -629 Descending Chicago Center
Sun 02:14:04 PM 42.8842 -87.9039 North 186 214 1,700 -677 Descending Chicago Center
Sun 02:15:06 PM 42.9211 -87.8969 North 168 193 1,200 -484 Descending Chicago Center
Sun 02:17:00 PM 42.9333 -87.8833 336° Northwest  Level FlightAware Approximate

Login

Don't have an account? Register now (free) for customized features, flight alerts, and more!